Time;durP1;ratioP1;P1;durP2;ratioP2;P2;SDS_P1;SDS_P2;PMS_P1;PMS_P2;Temp;Humidity;BMP_temperature;BMP_pressure;BME280_temperature;BME280_humidity;BME280_pressure;Samples;Min_cycle;Max_cycle;Signal;HPM_P1;HPM_P2
2022/05/24 00:04:56;;;;;;;9.98;4.63;;;;;;;;;;6187610;23;20048;-77
2022/05/24 00:19:51;;;;;;;6.88;3.30;;;;;;;;;;6187116;23;20024;-79
2022/05/24 00:25:52;;;;;;;6.10;3.63;;;;;;;;;;6203229;23;20052;-94
2022/05/24 00:28:25;;;;;;;6.00;3.97;;;;;;;;;;6166162;23;20063;-79
2022/05/24 00:31:01;;;;;;;9.10;3.47;;;;;;;;;;6161625;23;20334;-96
2022/05/24 00:47:54;;;;;;;5.07;2.90;;;;;;;;;;6187200;23;20067;-96
2022/05/24 00:50:54;;;;;;;6.32;3.38;;;;;;;;;;6160477;23;20056;-95
2022/05/24 00:53:39;;;;;;;6.80;3.58;;;;;;;;;;6155812;23;20021;-92
2022/05/24 01:02:02;;;;;;;6.55;3.95;;;;;;;;;;6193556;23;20227;-83
2022/05/24 01:04:31;;;;;;;7.75;4.07;;;;;;;;;;6191291;23;20013;-96
2022/05/24 01:06:58;;;;;;;7.97;4.22;;;;;;;;;;6161819;23;20001;-79
2022/05/24 01:09:26;;;;;;;7.72;4.25;;;;;;;;;;6161090;23;20005;-77
2022/05/24 01:11:59;;;;;;;5.72;3.83;;;;;;;;;;6161033;23;20005;-91
2022/05/24 01:50:51;;;;;;;6.03;4.30;;;;;;;;;;6187567;23;20032;-94
2022/05/24 01:59:03;;;;;;;;;;;;;;;;;;6271175;22;20073;-81
2022/05/24 02:01:32;;;;;;;5.90;4.03;;;;;;;;;;6277685;22;19895;-80
2022/05/24 02:21:35;;;;;;;6.60;3.75;;;;;;;;;;6161587;23;20050;-81
2022/05/24 02:24:46;;;;;;;6.18;3.40;;;;;;;;;;6131102;23;20009;-91
2022/05/24 02:27:33;;;;;;;4.88;3.20;;;;;;;;;;6038079;23;20022;-90
2022/05/24 02:36:09;;;;;;;7.13;4.00;;;;;;;;;;6156834;23;20029;-79
2022/05/24 02:47:13;;;;;;;4.95;3.20;;;;;;;;;;6186432;23;20347;-94
2022/05/24 02:49:42;;;;;;;7.05;3.10;;;;;;;;;;6186633;23;20005;-90
2022/05/24 02:52:34;;;;;;;6.95;3.35;;;;;;;;;;6159596;23;20025;-95
2022/05/24 02:55:01;;;;;;;5.80;2.90;;;;;;;;;;6158780;23;20025;-80
2022/05/24 02:57:30;;;;;;;6.45;3.50;;;;;;;;;;6160224;23;20009;-88
2022/05/24 03:00:06;;;;;;;5.03;3.50;;;;;;;;;;6160207;23;20035;-78
2022/05/24 03:14:22;;;;;;;6.53;3.67;;;;;;;;;;6186629;23;20016;-92
2022/05/24 03:16:56;;;;;;;5.43;3.22;;;;;;;;;;6159586;23;20009;-91
2022/05/24 03:58:37;;;;;;;8.18;4.25;;;;;;;;;;6187518;23;20020;-92
2022/05/24 04:01:03;;;;;;;6.40;3.50;;;;;;;;;;6161491;23;20081;-80
2022/05/24 04:09:42;;;;;;;4.80;4.30;;;;;;;;;;6189285;23;20043;-90
2022/05/24 04:17:41;;;;;;;7.78;5.30;;;;;;;;;;6188148;23;20078;-78
2022/05/24 04:20:10;;;;;;;6.43;5.05;;;;;;;;;;6161214;23;20016;-90
2022/05/24 04:31:22;;;;;;;7.43;4.13;;;;;;;;;;6187353;23;20045;-79
2022/05/24 04:33:48;;;;;;;5.25;4.18;;;;;;;;;;6161500;23;20526;-79
2022/05/24 04:55:35;;;;;;;8.18;4.50;;;;;;;;;;6186501;23;20268;-94
2022/05/24 04:58:17;;;;;;;8.38;4.68;;;;;;;;;;6187224;23;19997;-93
2022/05/24 05:00:44;;;;;;;7.00;5.35;;;;;;;;;;6186542;23;20001;-78
2022/05/24 05:03:12;;;;;;;7.65;5.57;;;;;;;;;;6159320;23;20032;-78
2022/05/24 05:05:38;;;;;;;8.23;6.00;;;;;;;;;;6186360;23;20008;-78
2022/05/24 05:08:05;;;;;;;7.97;5.53;;;;;;;;;;6187282;23;20108;-80
2022/05/24 05:10:34;;;;;;;8.30;5.25;;;;;;;;;;6186702;23;20008;-81
2022/05/24 05:13:00;;;;;;;7.30;4.80;;;;;;;;;;6160685;23;20087;-80
2022/05/24 05:15:26;;;;;;;6.07;4.40;;;;;;;;;;6159474;23;20013;-80
2022/05/24 05:17:57;;;;;;;6.60;4.53;;;;;;;;;;6159588;23;20001;-82
2022/05/24 05:20:23;;;;;;;6.50;4.30;;;;;;;;;;6186316;23;20005;-81
2022/05/24 05:22:49;;;;;;;8.15;5.30;;;;;;;;;;6160025;23;20010;-81
2022/05/24 05:25:15;;;;;;;12.55;5.32;;;;;;;;;;6159921;23;20454;-81
2022/05/24 05:27:41;;;;;;;7.38;5.45;;;;;;;;;;6160053;23;20005;-82
2022/05/24 05:32:55;;;;;;;8.43;5.43;;;;;;;;;;6185845;23;20019;-84
2022/05/24 05:35:21;;;;;;;8.95;5.45;;;;;;;;;;6185436;23;20399;-79
2022/05/24 05:37:47;;;;;;;8.50;4.78;;;;;;;;;;6159479;23;20331;-78
2022/05/24 05:40:14;;;;;;;6.95;5.30;;;;;;;;;;6160093;23;20016;-78
2022/05/24 05:43:09;;;;;;;6.20;4.90;;;;;;;;;;6185940;23;20028;-79
2022/05/24 05:45:35;;;;;;;8.18;5.15;;;;;;;;;;6160051;23;20016;-79
2022/05/24 05:48:02;;;;;;;7.60;5.43;;;;;;;;;;6154125;23;20022;-79
2022/05/24 05:50:39;;;;;;;7.82;5.70;;;;;;;;;;6129805;23;20017;-79
2022/05/24 05:53:05;;;;;;;7.50;5.28;;;;;;;;;;6129530;23;20160;-81
2022/05/24 05:55:36;;;;;;;6.57;5.55;;;;;;;;;;6129535;23;20513;-80
2022/05/24 05:58:03;;;;;;;7.72;5.13;;;;;;;;;;6129403;23;20008;-80
2022/05/24 06:00:29;;;;;;;8.85;4.75;;;;;;;;;;6128892;23;20067;-80
2022/05/24 06:02:55;;;;;;;8.18;4.85;;;;;;;;;;6130388;23;20005;-77
2022/05/24 06:05:21;;;;;;;6.80;4.82;;;;;;;;;;6155835;23;20002;-77
2022/05/24 06:07:47;;;;;;;6.47;4.55;;;;;;;;;;6129126;23;20002;-76
2022/05/24 06:10:13;;;;;;;8.50;4.75;;;;;;;;;;6155958;23;20076;-77
2022/05/24 06:12:40;;;;;;;5.60;4.97;;;;;;;;;;6156106;23;20005;-76
2022/05/24 06:15:06;;;;;;;6.43;4.65;;;;;;;;;;6156065;23;20009;-76
2022/05/24 06:17:33;;;;;;;7.05;4.50;;;;;;;;;;6155665;23;20001;-77
2022/05/24 06:20:14;;;;;;;6.28;5.22;;;;;;;;;;6128955;23;20037;-77
2022/05/24 06:22:41;;;;;;;6.90;4.38;;;;;;;;;;6128780;23;20324;-77
2022/05/24 06:25:36;;;;;;;5.93;4.32;;;;;;;;;;6155717;23;20060;-77
2022/05/24 06:28:02;;;;;;;10.35;4.68;;;;;;;;;;6105442;23;20006;-75
2022/05/24 06:30:28;;;;;;;9.48;4.65;;;;;;;;;;6156087;23;20005;-77
2022/05/24 06:32:55;;;;;;;8.93;4.82;;;;;;;;;;6155466;23;20077;-75
2022/05/24 06:35:21;;;;;;;5.38;4.60;;;;;;;;;;6129336;23;20316;-76
2022/05/24 06:37:54;;;;;;;9.10;4.95;;;;;;;;;;6155363;23;20001;-79
2022/05/24 06:40:27;;;;;;;6.13;4.38;;;;;;;;;;6129604;23;20099;-76
2022/05/24 06:42:53;;;;;;;6.22;4.53;;;;;;;;;;6129445;23;20039;-76
2022/05/24 06:45:22;;;;;;;4.82;4.20;;;;;;;;;;6155569;23;20459;-76
2022/05/24 06:47:48;;;;;;;9.25;4.80;;;;;;;;;;6129517;23;20048;-75
2022/05/24 06:50:17;;;;;;;6.82;4.35;;;;;;;;;;6155552;23;20442;-76
2022/05/24 06:52:44;;;;;;;6.15;4.78;;;;;;;;;;6129459;23;20342;-76
2022/05/24 06:55:11;;;;;;;5.80;4.35;;;;;;;;;;6155078;23;20013;-76
2022/05/24 06:57:37;;;;;;;7.22;4.30;;;;;;;;;;6129507;23;20032;-76
2022/05/24 07:03:01;;;;;;;5.70;3.95;;;;;;;;;;6155701;23;20097;-76
2022/05/24 07:05:30;;;;;;;6.45;4.32;;;;;;;;;;6157009;23;20101;-89
2022/05/24 07:08:17;;;;;;;5.82;4.82;;;;;;;;;;6161329;23;20002;-80
2022/05/24 07:10:43;;;;;;;7.43;4.65;;;;;;;;;;6159731;23;20334;-85
2022/05/24 07:13:13;;;;;;;8.00;5.03;;;;;;;;;;6097982;23;20002;-79
2022/05/24 07:18:37;;;;;;;7.30;4.68;;;;;;;;;;6096226;23;20026;-77
2022/05/24 07:21:07;;;;;;;6.45;4.10;;;;;;;;;;6072864;23;20011;-86
2022/05/24 07:23:39;;;;;;;5.05;3.97;;;;;;;;;;6098275;23;20066;-89
2022/05/24 07:26:10;;;;;;;10.25;3.97;;;;;;;;;;6074528;23;20013;-90
2022/05/24 07:28:55;;;;;;;5.40;3.53;;;;;;;;;;6074809;23;20021;-83
2022/05/24 07:31:24;;;;;;;8.85;3.78;;;;;;;;;;6074451;23;20010;-84
2022/05/24 07:33:50;;;;;;;6.38;4.10;;;;;;;;;;6072821;23;20018;-82
2022/05/24 07:36:40;;;;;;;5.03;3.92;;;;;;;;;;6072286;23;20007;-82
2022/05/24 07:39:40;;;;;;;6.85;3.80;;;;;;;;;;6073017;23;20364;-89
2022/05/24 07:50:31;;;;;;;8.18;3.50;;;;;;;;;;6012410;23;20008;-82
2022/05/24 07:52:57;;;;;;;5.05;3.65;;;;;;;;;;6116490;23;20010;-86
2022/05/24 07:55:26;;;;;;;5.82;3.08;;;;;;;;;;6103098;23;20014;-87
2022/05/24 07:57:52;;;;;;;6.60;3.75;;;;;;;;;;6102563;23;20029;-80
2022/05/24 08:00:19;;;;;;;6.28;3.50;;;;;;;;;;6101940;23;20017;-79
2022/05/24 08:02:45;;;;;;;6.35;3.70;;;;;;;;;;6101956;23;20012;-84
2022/05/24 08:05:11;;;;;;;5.22;3.50;;;;;;;;;;6101792;23;20021;-87
2022/05/24 08:07:37;;;;;;;6.13;3.33;;;;;;;;;;6101596;23;20013;-80
2022/05/24 08:10:05;;;;;;;8.07;3.63;;;;;;;;;;6101573;23;20130;-85
2022/05/24 08:12:32;;;;;;;5.38;3.70;;;;;;;;;;6101753;23;20379;-79
2022/05/24 08:14:58;;;;;;;9.02;3.70;;;;;;;;;;6127491;23;20402;-78
2022/05/24 08:17:25;;;;;;;8.65;3.60;;;;;;;;;;6127228;23;20001;-82
2022/05/24 08:19:52;;;;;;;6.05;3.70;;;;;;;;;;6101232;23;20012;-78
2022/05/24 08:22:19;;;;;;;6.57;4.10;;;;;;;;;;6126235;23;20419;-78
2022/05/24 08:24:45;;;;;;;5.70;3.80;;;;;;;;;;6100885;23;20006;-90
2022/05/24 08:27:14;;;;;;;9.77;4.03;;;;;;;;;;6103128;23;20085;-87
2022/05/24 08:29:40;;;;;;;6.43;4.00;;;;;;;;;;6102509;23;20343;-91
2022/05/24 08:32:06;;;;;;;7.20;3.72;;;;;;;;;;6102777;23;20002;-85
2022/05/24 08:34:33;;;;;;;9.52;3.60;;;;;;;;;;6102571;23;20018;-81
2022/05/24 08:37:02;;;;;;;5.70;3.42;;;;;;;;;;6102188;23;20006;-89
2022/05/24 08:39:29;;;;;;;5.60;3.70;;;;;;;;;;6129499;23;20419;-79
2022/05/24 08:42:15;;;;;;;7.53;3.40;;;;;;;;;;6103835;23;20002;-83
2022/05/24 08:50:48;;;;;;;9.25;3.95;;;;;;;;;;6158073;23;20399;-96
2022/05/24 08:53:18;;;;;;;4.90;4.18;;;;;;;;;;6131130;23;20001;-80
2022/05/24 08:55:44;;;;;;;5.45;4.00;;;;;;;;;;6157605;23;20068;-85
2022/05/24 08:58:17;;;;;;;5.03;3.95;;;;;;;;;;6162889;23;20009;-87
2022/05/24 09:01:02;;;;;;;7.43;4.25;;;;;;;;;;6140842;23;20010;-91
2022/05/24 09:03:29;;;;;;;8.10;4.50;;;;;;;;;;6131814;23;20002;-89
2022/05/24 09:06:10;;;;;;;8.85;4.93;;;;;;;;;;6130908;23;20001;-81
2022/05/24 09:09:14;;;;;;;5.18;3.97;;;;;;;;;;6126903;23;20056;-79
2022/05/24 09:11:45;;;;;;;7.22;4.00;;;;;;;;;;6015325;23;20152;-80
2022/05/24 09:14:51;;;;;;;6.22;4.38;;;;;;;;;;6038486;23;20047;-80
2022/05/24 09:17:19;;;;;;;5.57;4.20;;;;;;;;;;6038201;23;20003;-77
2022/05/24 09:19:52;;;;;;;6.72;3.70;;;;;;;;;;6039044;23;20111;-90
2022/05/24 09:22:21;;;;;;;6.68;3.95;;;;;;;;;;6144548;23;20012;-79
2022/05/24 09:24:57;;;;;;;7.20;3.53;;;;;;;;;;6131189;23;20554;-84
2022/05/24 09:27:25;;;;;;;7.75;4.15;;;;;;;;;;6130765;23;20084;-78
2022/05/24 09:29:53;;;;;;;6.88;4.05;;;;;;;;;;6156412;23;20028;-77
2022/05/24 09:32:21;;;;;;;4.78;3.90;;;;;;;;;;6130592;23;20320;-77
2022/05/24 09:34:47;;;;;;;7.20;3.83;;;;;;;;;;6156594;23;20009;-78
2022/05/24 09:37:27;;;;;;;6.47;3.65;;;;;;;;;;6130503;23;20010;-82
2022/05/24 09:39:58;;;;;;;6.78;3.83;;;;;;;;;;6156806;23;20030;-77
2022/05/24 09:42:30;;;;;;;6.03;3.50;;;;;;;;;;6130894;23;20006;-87
2022/05/24 09:45:17;;;;;;;4.63;3.60;;;;;;;;;;6130623;23;20009;-90
2022/05/24 09:47:43;;;;;;;5.70;3.72;;;;;;;;;;6131703;23;20021;-88
2022/05/24 09:50:18;;;;;;;6.75;2.95;;;;;;;;;;6131487;23;20326;-80
2022/05/24 09:53:03;;;;;;;4.57;3.30;;;;;;;;;;6130824;23;20006;-90
2022/05/24 09:55:48;;;;;;;8.80;3.75;;;;;;;;;;6130720;23;20339;-82
2022/05/24 09:58:34;;;;;;;5.57;4.00;;;;;;;;;;6131040;23;20430;-79
2022/05/24 10:01:07;;;;;;;5.28;3.70;;;;;;;;;;6130984;23;20316;-94
2022/05/24 10:03:38;;;;;;;5.22;3.65;;;;;;;;;;6130198;23;20013;-81
2022/05/24 10:06:13;;;;;;;5.85;4.10;;;;;;;;;;6129762;23;20009;-81
2022/05/24 10:08:45;;;;;;;5.97;3.85;;;;;;;;;;6129974;23;20005;-78
2022/05/24 10:11:21;;;;;;;5.38;3.75;;;;;;;;;;6130368;23;20426;-78
2022/05/24 10:13:56;;;;;;;6.00;3.45;;;;;;;;;;6129868;23;20001;-79
2022/05/24 10:16:45;;;;;;;7.85;3.42;;;;;;;;;;6154732;23;20006;-84
2022/05/24 10:19:13;;;;;;;5.10;3.50;;;;;;;;;;6156072;23;20429;-78
2022/05/24 10:21:52;;;;;;;7.30;3.40;;;;;;;;;;6156355;23;20072;-79
2022/05/24 10:24:37;;;;;;;7.90;3.45;;;;;;;;;;6156976;23;20001;-80
2022/05/24 10:27:13;;;;;;;6.22;3.60;;;;;;;;;;6156092;23;20018;-81
2022/05/24 10:29:39;;;;;;;7.90;3.90;;;;;;;;;;6154690;23;20010;-81
2022/05/24 10:38:20;;;;;;;5.95;3.60;;;;;;;;;;6156913;23;20015;-83
2022/05/24 10:41:05;;;;;;;4.78;3.30;;;;;;;;;;6155496;23;20005;-80
2022/05/24 10:43:45;;;;;;;5.70;3.40;;;;;;;;;;6135252;23;20089;-86
2022/05/24 10:46:16;;;;;;;6.25;3.03;;;;;;;;;;6157510;23;20029;-88
2022/05/24 10:49:01;;;;;;;4.60;3.30;;;;;;;;;;6157501;23;20013;-81
2022/05/24 10:51:40;;;;;;;5.13;2.95;;;;;;;;;;6156651;23;20100;-89
2022/05/24 10:54:16;;;;;;;5.88;3.40;;;;;;;;;;6157287;23;20080;-82
2022/05/24 10:57:10;;;;;;;6.45;3.33;;;;;;;;;;6160689;23;20014;-86
2022/05/24 10:59:36;;;;;;;6.10;3.28;;;;;;;;;;6127436;23;20005;-80
2022/05/24 11:02:12;;;;;;;7.15;4.45;;;;;;;;;;6156233;23;20040;-84
2022/05/24 11:04:58;;;;;;;6.60;4.07;;;;;;;;;;6156412;23;20002;-76
2022/05/24 11:07:26;;;;;;;4.90;3.47;;;;;;;;;;6133157;23;20013;-76
2022/05/24 11:10:09;;;;;;;5.72;3.30;;;;;;;;;;6155864;23;20006;-83
2022/05/24 11:12:47;;;;;;;6.28;3.10;;;;;;;;;;6156017;23;20009;-83
2022/05/24 11:15:28;;;;;;;6.25;3.13;;;;;;;;;;6159045;23;20421;-77
2022/05/24 11:17:54;;;;;;;4.18;3.30;;;;;;;;;;6155206;23;20088;-79
2022/05/24 11:20:32;;;;;;;5.25;3.40;;;;;;;;;;6155693;23;20006;-79
2022/05/24 11:23:02;;;;;;;4.13;2.70;;;;;;;;;;6158968;23;20005;-81
2022/05/24 11:25:31;;;;;;;7.18;3.30;;;;;;;;;;6161742;23;20013;-81
2022/05/24 11:28:00;;;;;;;5.63;3.30;;;;;;;;;;6157031;23;20088;-81
2022/05/24 11:30:29;;;;;;;4.60;2.97;;;;;;;;;;6154936;23;20072;-83
2022/05/24 11:33:07;;;;;;;8.57;3.40;;;;;;;;;;6162985;23;20025;-83
2022/05/24 11:35:36;;;;;;;5.47;2.80;;;;;;;;;;6159683;23;20066;-87
2022/05/24 11:38:12;;;;;;;6.20;2.75;;;;;;;;;;6160851;23;20021;-79
2022/05/24 11:40:56;;;;;;;6.10;3.00;;;;;;;;;;6162882;23;20084;-85
2022/05/24 11:43:39;;;;;;;6.10;3.45;;;;;;;;;;6186961;23;20071;-83
2022/05/24 11:46:31;;;;;;;6.45;3.35;;;;;;;;;;6187921;23;20060;-89
2022/05/24 11:48:59;;;;;;;8.52;3.70;;;;;;;;;;6187657;23;20005;-84
2022/05/24 11:51:37;;;;;;;4.15;3.45;;;;;;;;;;6186608;23;20084;-81
2022/05/24 11:54:29;;;;;;;6.10;3.35;;;;;;;;;;6186258;23;20013;-88
2022/05/24 11:57:01;;;;;;;6.47;3.80;;;;;;;;;;6180175;23;20039;-84
2022/05/24 11:59:40;;;;;;;6.10;3.53;;;;;;;;;;6190894;23;20338;-80
2022/05/24 12:02:22;;;;;;;6.53;3.45;;;;;;;;;;6190475;23;20088;-77
2022/05/24 12:07:58;;;;;;;6.70;4.05;;;;;;;;;;6216786;23;20016;-81
2022/05/24 12:10:24;;;;;;;5.68;3.47;;;;;;;;;;6190142;23;20008;-79
2022/05/24 12:12:56;;;;;;;5.32;3.20;;;;;;;;;;6190413;23;20005;-77
2022/05/24 12:15:32;;;;;;;6.20;3.40;;;;;;;;;;6190235;23;20047;-79
2022/05/24 12:17:58;;;;;;;5.93;3.17;;;;;;;;;;6190208;23;20004;-77
2022/05/24 12:20:27;;;;;;;5.13;3.42;;;;;;;;;;6190150;23;20001;-79
2022/05/24 12:23:15;;;;;;;6.60;3.60;;;;;;;;;;6190212;23;20032;-78
2022/05/24 12:25:51;;;;;;;8.15;3.00;;;;;;;;;;6216921;23;20092;-78
2022/05/24 12:28:18;;;;;;;5.47;3.35;;;;;;;;;;6190170;23;20469;-79
2022/05/24 12:30:47;;;;;;;4.28;3.20;;;;;;;;;;6190176;23;20008;-79
2022/05/24 12:33:13;;;;;;;6.05;3.10;;;;;;;;;;6189791;23;20039;-81
2022/05/24 12:35:48;;;;;;;3.58;2.90;;;;;;;;;;6190085;23;20039;-79
2022/05/24 12:38:19;;;;;;;5.78;2.85;;;;;;;;;;6216390;23;20036;-80
2022/05/24 12:40:45;;;;;;;5.80;2.55;;;;;;;;;;6190070;23;20012;-85
2022/05/24 12:43:16;;;;;;;5.80;2.70;;;;;;;;;;6189785;23;20344;-77
2022/05/24 12:45:47;;;;;;;4.32;3.00;;;;;;;;;;6189958;23;20004;-77
2022/05/24 12:48:32;;;;;;;4.97;2.90;;;;;;;;;;6189950;23;20437;-90
2022/05/24 12:50:59;;;;;;;6.10;3.10;;;;;;;;;;6190105;23;20008;-83
2022/05/24 12:53:29;;;;;;;4.80;3.03;;;;;;;;;;6189890;23;20404;-83
2022/05/24 12:55:59;;;;;;;4.30;2.85;;;;;;;;;;6189238;23;20016;-83
2022/05/24 12:58:25;;;;;;;5.35;2.65;;;;;;;;;;6189832;23;20430;-83
2022/05/24 13:00:52;;;;;;;4.18;2.70;;;;;;;;;;6189977;23;20028;-85
2022/05/24 13:03:22;;;;;;;4.38;2.92;;;;;;;;;;6189967;23;20445;-83
2022/05/24 13:05:53;;;;;;;11.45;3.42;;;;;;;;;;6189930;23;20448;-82
2022/05/24 13:08:19;;;;;;;7.80;3.50;;;;;;;;;;6189883;23;20005;-81
2022/05/24 13:10:47;;;;;;;5.70;3.80;;;;;;;;;;6189737;23;20004;-85
2022/05/24 13:13:21;;;;;;;5.07;3.72;;;;;;;;;;6189963;23;20083;-84
2022/05/24 13:15:49;;;;;;;4.88;3.30;;;;;;;;;;6189348;23;20017;-88
2022/05/24 13:18:20;;;;;;;4.28;3.50;;;;;;;;;;6189849;23;20011;-87
2022/05/24 13:20:51;;;;;;;6.57;3.50;;;;;;;;;;6189866;23;20009;-83
2022/05/24 13:23:17;;;;;;;4.75;3.72;;;;;;;;;;6216619;23;20008;-83
2022/05/24 13:25:50;;;;;;;6.90;3.95;;;;;;;;;;6216272;23;20023;-82
2022/05/24 13:28:32;;;;;;;5.47;4.07;;;;;;;;;;6190026;23;20008;-85
2022/05/24 13:33:47;;;;;;;6.93;3.10;;;;;;;;;;6216469;23;20012;-82
2022/05/24 13:36:18;;;;;;;5.50;3.65;;;;;;;;;;6190356;23;20008;-84
2022/05/24 13:38:45;;;;;;;5.55;3.45;;;;;;;;;;6216507;23;20322;-86
2022/05/24 13:41:11;;;;;;;7.20;3.33;;;;;;;;;;6190091;23;20009;-83
2022/05/24 13:43:39;;;;;;;5.93;3.67;;;;;;;;;;6189641;23;20315;-83
2022/05/24 13:46:21;;;;;;;4.72;3.50;;;;;;;;;;6189210;23;20004;-77
2022/05/24 13:48:55;;;;;;;8.15;3.42;;;;;;;;;;6215762;23;20028;-78
2022/05/24 13:51:32;;;;;;;7.03;3.60;;;;;;;;;;6189379;23;20015;-83
2022/05/24 13:53:58;;;;;;;6.40;3.40;;;;;;;;;;6188891;23;20004;-79
2022/05/24 13:56:27;;;;;;;4.90;3.60;;;;;;;;;;6189370;23;20004;-79
2022/05/24 13:59:06;;;;;;;5.45;3.78;;;;;;;;;;6215961;23;20047;-79
2022/05/24 14:01:37;;;;;;;6.35;3.92;;;;;;;;;;6188966;23;20087;-79
2022/05/24 14:04:14;;;;;;;6.90;3.75;;;;;;;;;;6189488;23;20105;-79
2022/05/24 14:06:41;;;;;;;7.38;3.88;;;;;;;;;;6216014;23;20000;-78
2022/05/24 14:09:07;;;;;;;5.93;3.60;;;;;;;;;;6216012;23;20338;-78
2022/05/24 14:11:34;;;;;;;6.15;3.75;;;;;;;;;;6189004;23;20035;-79
2022/05/24 14:14:00;;;;;;;5.10;3.80;;;;;;;;;;6189173;23;20414;-79
2022/05/24 14:16:27;;;;;;;6.85;3.95;;;;;;;;;;6189337;23;20005;-79
2022/05/24 14:18:53;;;;;;;4.38;3.70;;;;;;;;;;6189162;23;20001;-78
2022/05/24 14:21:22;;;;;;;5.65;3.50;;;;;;;;;;6189254;23;20005;-79
2022/05/24 14:23:48;;;;;;;8.65;3.72;;;;;;;;;;6188754;23;20080;-78
2022/05/24 14:26:14;;;;;;;8.43;3.47;;;;;;;;;;6189378;23;20004;-86
2022/05/24 14:28:41;;;;;;;8.20;3.85;;;;;;;;;;6190222;23;20000;-82
2022/05/24 14:31:07;;;;;;;6.97;3.22;;;;;;;;;;6190159;23;20004;-85
2022/05/24 14:33:34;;;;;;;6.50;4.47;;;;;;;;;;6189609;23;20007;-85
2022/05/24 14:36:00;;;;;;;7.22;4.10;;;;;;;;;;6189636;23;20019;-88
2022/05/24 14:38:26;;;;;;;7.47;4.03;;;;;;;;;;6215881;23;20088;-85
2022/05/24 14:40:52;;;;;;;6.00;3.50;;;;;;;;;;6189608;23;20040;-88
2022/05/24 14:43:27;;;;;;;8.98;3.90;;;;;;;;;;6189927;23;20434;-86
2022/05/24 14:45:54;;;;;;;5.03;3.60;;;;;;;;;;6216014;23;19997;-85
2022/05/24 14:48:20;;;;;;;6.00;3.78;;;;;;;;;;6216035;23;20003;-85
2022/05/24 14:50:46;;;;;;;7.88;3.58;;;;;;;;;;6189290;23;20028;-84
2022/05/24 14:53:13;;;;;;;5.07;3.50;;;;;;;;;;6189043;23;20369;-84
2022/05/24 14:55:40;;;;;;;7.07;3.60;;;;;;;;;;6189334;23;20031;-91
2022/05/24 14:58:06;;;;;;;6.70;3.78;;;;;;;;;;6189545;23;20426;-84
2022/05/24 15:00:35;;;;;;;7.63;3.90;;;;;;;;;;6216232;23;20433;-84
2022/05/24 15:03:05;;;;;;;6.25;3.42;;;;;;;;;;6215979;23;20000;-84
2022/05/24 15:05:33;;;;;;;6.85;4.03;;;;;;;;;;6189275;23;20437;-86
2022/05/24 15:16:18;;;;;;;4.85;3.90;;;;;;;;;;6215888;23;20448;-85
2022/05/24 15:18:44;;;;;;;5.28;3.58;;;;;;;;;;6189375;23;20012;-85
2022/05/24 15:21:10;;;;;;;6.45;3.95;;;;;;;;;;6189851;23;20039;-88
2022/05/24 15:23:38;;;;;;;6.30;3.58;;;;;;;;;;6189447;23;20140;-83
2022/05/24 15:26:06;;;;;;;6.07;3.80;;;;;;;;;;6189395;23;20100;-84
2022/05/24 15:28:33;;;;;;;6.30;3.50;;;;;;;;;;6189583;23;20358;-86
2022/05/24 15:30:59;;;;;;;8.73;4.00;;;;;;;;;;6216053;23;20513;-89
2022/05/24 15:33:26;;;;;;;7.43;3.65;;;;;;;;;;6189808;23;20008;-84
2022/05/24 15:35:52;;;;;;;6.28;3.90;;;;;;;;;;6215802;23;20014;-88
2022/05/24 15:38:20;;;;;;;7.88;3.85;;;;;;;;;;6188385;23;20027;-90
2022/05/24 15:40:47;;;;;;;6.80;4.10;;;;;;;;;;6190065;23;20008;-83
2022/05/24 15:43:13;;;;;;;8.18;4.10;;;;;;;;;;6215905;23;20007;-85
2022/05/24 15:45:40;;;;;;;7.07;3.85;;;;;;;;;;6215517;23;20042;-87
2022/05/24 15:48:07;;;;;;;7.25;4.28;;;;;;;;;;6189699;23;20011;-87
2022/05/24 15:50:36;;;;;;;5.03;4.05;;;;;;;;;;6190052;23;20004;-95
2022/05/24 15:53:03;;;;;;;6.93;4.03;;;;;;;;;;6190076;23;20063;-83
2022/05/24 15:55:29;;;;;;;7.30;4.20;;;;;;;;;;6216035;23;20067;-87
2022/05/24 15:57:56;;;;;;;6.97;4.03;;;;;;;;;;6190224;23;20004;-90
2022/05/24 16:00:22;;;;;;;9.52;4.40;;;;;;;;;;6216308;23;20008;-88
2022/05/24 16:02:49;;;;;;;5.97;3.92;;;;;;;;;;6189862;23;20001;-89
2022/05/24 16:10:45;;;;;;;8.50;4.47;;;;;;;;;;6216798;23;20042;-87
2022/05/24 16:13:12;;;;;;;7.55;4.40;;;;;;;;;;6189934;23;20055;-86
2022/05/24 16:15:44;;;;;;;9.00;4.43;;;;;;;;;;6216262;23;20008;-87
2022/05/24 16:18:10;;;;;;;7.18;4.28;;;;;;;;;;6191265;23;20004;-87
2022/05/24 16:20:37;;;;;;;7.80;4.55;;;;;;;;;;6190836;23;20016;-88
2022/05/24 16:23:06;;;;;;;8.35;4.57;;;;;;;;;;6189686;23;20433;-89
2022/05/24 16:25:32;;;;;;;9.32;4.72;;;;;;;;;;6189590;23;20458;-86
2022/05/24 16:27:58;;;;;;;8.23;4.43;;;;;;;;;;6216116;23;20436;-86
2022/05/24 16:30:24;;;;;;;7.55;4.88;;;;;;;;;;6189826;23;20010;-86
2022/05/24 16:32:51;;;;;;;10.52;4.30;;;;;;;;;;6189571;23;20060;-89
2022/05/24 16:35:17;;;;;;;5.45;4.10;;;;;;;;;;6189866;23;20040;-86
2022/05/24 16:37:43;;;;;;;8.00;4.10;;;;;;;;;;6114974;23;1674264;-87
2022/05/24 16:40:10;;;;;;;6.45;4.10;;;;;;;;;;6187680;23;20346;-85
2022/05/24 16:42:36;;;;;;;7.20;3.88;;;;;;;;;;6188217;23;20005;-84
2022/05/24 16:45:03;;;;;;;5.10;4.10;;;;;;;;;;6185846;23;20067;-87
2022/05/24 16:47:29;;;;;;;6.15;4.45;;;;;;;;;;6186416;23;20431;-93
2022/05/24 16:49:55;;;;;;;7.80;4.18;;;;;;;;;;6185994;23;20020;-84
2022/05/24 16:52:22;;;;;;;8.10;4.72;;;;;;;;;;6184993;23;20009;-86
2022/05/24 17:00:19;;;;;;;7.95;4.05;;;;;;;;;;6187340;23;20019;-81
2022/05/24 17:02:52;;;;;;;10.05;4.60;;;;;;;;;;6185954;23;20001;-87
2022/05/24 17:05:19;;;;;;;6.32;3.90;;;;;;;;;;6185560;23;20012;-87
2022/05/24 17:07:45;;;;;;;7.55;3.92;;;;;;;;;;6185770;23;20005;-90
2022/05/24 17:10:12;;;;;;;4.72;3.63;;;;;;;;;;6186229;23;20447;-88
2022/05/24 17:12:38;;;;;;;6.85;3.22;;;;;;;;;;6185730;23;20005;-85
2022/05/24 17:15:05;;;;;;;5.50;3.78;;;;;;;;;;6185887;23;20013;-92
2022/05/24 17:17:31;;;;;;;8.77;3.63;;;;;;;;;;6186498;23;20087;-90
2022/05/24 17:19:57;;;;;;;5.68;3.50;;;;;;;;;;6185762;23;20091;-81
2022/05/24 17:22:24;;;;;;;5.38;3.22;;;;;;;;;;6185563;23;20028;-86
2022/05/24 17:24:50;;;;;;;8.30;3.80;;;;;;;;;;6185435;23;20033;-84
2022/05/24 17:27:17;;;;;;;4.82;3.67;;;;;;;;;;6185071;23;20009;-83
2022/05/24 17:29:43;;;;;;;5.57;3.50;;;;;;;;;;6185612;23;20039;-87
2022/05/24 17:32:11;;;;;;;9.90;3.97;;;;;;;;;;6185572;23;20005;-85
2022/05/24 17:34:38;;;;;;;7.60;3.78;;;;;;;;;;6185513;23;20016;-89
2022/05/24 17:37:05;;;;;;;6.22;3.47;;;;;;;;;;6189203;23;20035;-85
2022/05/24 17:39:32;;;;;;;7.45;3.85;;;;;;;;;;6190719;23;20016;-85
2022/05/24 17:41:58;;;;;;;5.60;3.35;;;;;;;;;;6190498;23;20004;-85
2022/05/24 17:44:25;;;;;;;8.45;3.60;;;;;;;;;;6190578;23;20436;-89
2022/05/24 17:46:51;;;;;;;6.78;3.72;;;;;;;;;;6191293;23;20049;-90
2022/05/24 17:49:18;;;;;;;4.53;3.42;;;;;;;;;;6190961;23;20007;-87
2022/05/24 17:51:44;;;;;;;4.50;3.10;;;;;;;;;;6190960;23;20087;-85
2022/05/24 17:54:11;;;;;;;3.88;3.10;;;;;;;;;;6189983;23;20039;-87
2022/05/24 17:56:37;;;;;;;5.78;3.10;;;;;;;;;;6190095;23;20004;-85
2022/05/24 17:59:03;;;;;;;4.85;3.15;;;;;;;;;;6189937;23;20051;-87
2022/05/24 18:01:30;;;;;;;5.68;3.42;;;;;;;;;;6189394;23;20369;-89
2022/05/24 18:03:56;;;;;;;5.75;3.33;;;;;;;;;;6190214;23;20015;-85
2022/05/24 18:06:23;;;;;;;6.15;3.47;;;;;;;;;;6190561;23;20016;-84
2022/05/24 18:08:49;;;;;;;6.53;3.88;;;;;;;;;;6191732;23;20330;-86
2022/05/24 18:11:15;;;;;;;5.35;3.50;;;;;;;;;;6190073;23;20008;-85
2022/05/24 18:13:41;;;;;;;6.90;3.90;;;;;;;;;;6190249;23;20095;-85
2022/05/24 18:16:07;;;;;;;4.85;3.58;;;;;;;;;;6190181;23;20012;-87
2022/05/24 18:18:33;;;;;;;6.85;3.60;;;;;;;;;;6190082;23;20326;-88
2022/05/24 18:21:01;;;;;;;4.93;3.08;;;;;;;;;;6190078;23;20012;-88
2022/05/24 18:23:31;;;;;;;4.55;3.40;;;;;;;;;;6189954;23;20001;-86
2022/05/24 18:34:17;;;;;;;6.00;3.65;;;;;;;;;;6216868;23;20019;-92
2022/05/24 18:36:45;;;;;;;4.28;3.25;;;;;;;;;;6218217;23;20008;-90
2022/05/24 18:39:11;;;;;;;16.95;5.38;;;;;;;;;;6190475;23;20074;-90
2022/05/24 18:41:38;;;;;;;5.80;3.58;;;;;;;;;;6190052;23;20008;-92
2022/05/24 18:44:04;;;;;;;6.25;3.83;;;;;;;;;;6190551;23;20005;-86
2022/05/24 18:46:30;;;;;;;5.53;4.30;;;;;;;;;;6216899;23;19997;-85
2022/05/24 18:48:56;;;;;;;6.72;4.20;;;;;;;;;;6190556;23;20012;-91
2022/05/24 18:51:22;;;;;;;6.80;4.68;;;;;;;;;;6216613;23;20001;-85
2022/05/24 18:53:50;;;;;;;5.93;4.22;;;;;;;;;;6216810;23;20011;-89
2022/05/24 18:56:18;;;;;;;6.85;4.80;;;;;;;;;;6188802;23;20070;-89
2022/05/24 18:58:47;;;;;;;8.80;4.95;;;;;;;;;;6182525;23;20001;-88
2022/05/24 19:01:14;;;;;;;6.30;5.50;;;;;;;;;;6182541;23;20008;-89
2022/05/24 19:03:40;;;;;;;7.22;5.28;;;;;;;;;;6189888;23;20028;-88
2022/05/24 19:06:06;;;;;;;7.90;5.40;;;;;;;;;;6190200;23;20088;-88
2022/05/24 19:08:35;;;;;;;5.90;5.03;;;;;;;;;;6190442;23;20030;-87
2022/05/24 19:11:01;;;;;;;8.43;4.43;;;;;;;;;;6182298;23;20400;-87
2022/05/24 19:13:28;;;;;;;8.30;5.00;;;;;;;;;;6190001;23;20441;-88
2022/05/24 19:15:55;;;;;;;5.13;4.22;;;;;;;;;;6218305;23;20314;-85
2022/05/24 19:18:24;;;;;;;6.47;4.00;;;;;;;;;;6218443;23;19996;-86
2022/05/24 19:20:52;;;;;;;5.97;3.55;;;;;;;;;;6190022;23;20503;-83
2022/05/24 19:23:18;;;;;;;4.40;3.78;;;;;;;;;;6218186;23;20088;-87
2022/05/24 19:25:45;;;;;;;5.65;4.10;;;;;;;;;;6218217;23;20001;-87
2022/05/24 19:28:11;;;;;;;4.75;3.50;;;;;;;;;;6191748;23;20391;-87
2022/05/24 19:30:37;;;;;;;6.00;4.28;;;;;;;;;;6192228;23;20032;-88